Tomas Coufal

Scout - Slavia Prague
26 Dez 2027
Sonntag
Verarbeitung

Persönlichkeit

Anpassungsfähigkeit (19) Ehrgeiz (7) Kontroverse (12) Loyalität (10) Druck (14) Professionalität (3) Fairness (11) Temperament (16)

Profil

Trainerstil Demokratisch
Lizenz Kontinentale A
Entschlossenheit 12
Menschenführung 12
Motivation 11
Disziplin 10
Arbeitszufriedenheit
100%
Ermüdung
0%
Rolle Scout
Gehalt 29.3K p/W
Vertrag 14.03.2029

Leistung

Verhalten Gut
Trainingseffektivität
45%
Spielerentwicklung
25%
Verletzungsprävention
65%
Taktische Umsetzung
50%

Aktuell beobachtet

157
Spieler Verein Status Fähigkeit Vertrauen Beobachtet Zuletzt beobachtet Letzte Stimme
Ramón Mierez Al Nasr Aktiv 120 / 125 40% 2 31.08.2027 -
George Hirst Stoke City Aktiv 141 / 137 40% 2 31.08.2027 -
Facundo Kruspzky Al Wahda Aktiv 120 / 122 40% 1 31.08.2027 -
Hamzat Ojediran Colorado Rapids Aktiv 125 / 124 40% 1 31.08.2027 -
Mamadou Coulibaly Al Jazira Aktiv 124 / 136 40% 2 29.08.2027 -
Brahima Diarra Al Wahda Aktiv 124 / 124 40% 2 29.08.2027 -
Theo Corbeanu Toronto FC Aktiv 131 / 128 40% 1 29.08.2027 -
Mojmír Chytil Viktoria Plzen Aktiv 143 / 138 40% 4 27.08.2027 -
Rayan Bournemouth Aktiv 140 / 142 40% 2 27.08.2027 -
Cheikh Sabaly Vancouver Whitecaps Aktiv 133 / 128 40% 1 27.08.2027 -
Bongokuhle Hlongwane Minnesota United FC Aktiv 126 / 128 40% 3 26.08.2027 -
Germán Valera Elche Aktiv 143 / 140 40% 2 26.08.2027 -
Jesus Ferreira Seattle Sounders Aktiv 136 / 132 40% 2 26.08.2027 -
Lucas Sanabria LA Galaxy Aktiv 126 / 132 40% 4 25.08.2027 -
Callum O'Hare Sheffield United Aktiv 134 / 139 40% 1 25.08.2027 -
Everton Bala Levski Aktiv 135 / 128 40% 1 25.08.2027 -
Breel Embolo Los Angeles Football Club Aktiv 140 / 135 40% 2 24.08.2027 -
Alexis Cuello San Lorenzo Aktiv 127 / 127 40% 1 24.08.2027 -
Bénie Traoré New York City Aktiv 129 / 128 40% 3 23.08.2027 -
Elias Baum Eintracht Frankfurt Aktiv 128 / 139 40% 1 23.08.2027 -
Jack McGlynn Houston Dynamo Aktiv 134 / 131 40% 1 23.08.2027 -
Jonás Luna Wanderers Aktiv 114 / 122 40% 3 21.08.2027 -
Otto Stange Hamburger SV Aktiv 114 / 124 40% 1 21.08.2027 -
Ramiro Peralta Juventud Aktiv 118 / 117 40% 1 21.08.2027 -
Amin Sarr Hellas Verona Aktiv 134 / 128 40% 1 19.08.2027 -
Adam Daghim TSG Hoffenheim Aktiv 144 / 143 40% 1 19.08.2027 -
Jonathan Rowe Bologna Aktiv 131 / 136 40% 1 19.08.2027 -
Filip Stojilković Pisa Aktiv 130 / 133 40% 2 18.08.2027 -
Dany Mota Monza Aktiv 139 / 132 40% 4 17.08.2027 -
Keinan Davis Udinese Aktiv 144 / 142 40% 2 17.08.2027 -
David Romero Parma Aktiv 121 / 129 40% 1 17.08.2027 -
Stiven Shpendi Empoli Aktiv 123 / 121 40% 1 17.08.2027 -
Tommaso Barbieri Cremonese Aktiv 132 / 137 40% 1 17.08.2027 -
Stefano Di Mario Virtus Entella Aktiv 127 / 125 40% 1 17.08.2027 -
Ola Brynhildsen Bodo/Glimt Aktiv 137 / 122 40% 5 15.08.2027 -
Akor Adams Venezia Aktiv 152 / 143 40% 3 15.08.2027 -
Sam Surridge Nashville SC Aktiv 136 / 130 40% 2 15.08.2027 -
Ahmed Qasem Nashville SC Aktiv 117 / 125 40% 1 15.08.2027 -
Anton Kade FC Augsburg Aktiv 129 / 132 40% 1 15.08.2027 -
Konan N'Dri Lecce Aktiv 128 / 129 40% 2 13.08.2027 -
Zakaria Aboukhlal Torino Aktiv 144 / 140 40% 1 13.08.2027 -
Matías Vargas Gimnasia y Esgrima Aktiv 128 / 130 40% 8 12.08.2027 -
Martín Ojeda Orlando City Aktiv 142 / 136 40% 1 12.08.2027 -
Pau Casadesús Granada Aktiv 116 / 119 40% 1 12.08.2027 -
Samuele Angori Pisa Aktiv 130 / 138 40% 1 12.08.2027 -
Bjorn Meijer Sampdoria Aktiv 131 / 132 40% 1 11.08.2027 -
Alex Amorim Genoa Aktiv 141 / 137 40% 1 11.08.2027 -
Kian Fitz-Jim Torino Aktiv 136 / 138 40% 1 10.08.2027 -
Alessandro Ventre Vis Pesaro Aktiv 99 / 102 40% 1 10.08.2027 -
Teo Rodríguez Pagano San Lorenzo Aktiv 114 / 121 40% 1 10.08.2027 -
Elijah Adebayo Luton Town Aktiv 123 / 132 40% 3 07.08.2027 -
Beto Everton Aktiv 137 / 141 40% 1 07.08.2027 -
Victor Torp Coventry City Aktiv 126 / 136 40% 1 06.08.2027 -
Julián Quiñones Al-Qadisiyah Aktiv 143 / 153 40% 4 05.08.2027 -
Yoane Wissa Newcastle United Aktiv 146 / 153 40% 4 05.08.2027 -
Rumarn Burrell Queens Park Rangers Aktiv 137 / 124 40% 1 04.08.2027 -
Willem Geubbels Lecce Aktiv 139 / 132 40% 1 03.08.2027 -
Aune Heggebø West Bromwich Albion Aktiv 126 / 136 40% 1 03.08.2027 -
Myles Peart-Harris Bristol Rovers Aktiv 125 / 126 40% 2 01.08.2027 -
Ryan Oné Sheffield United Aktiv 126 / 125 40% 1 01.08.2027 -
Ra'ees Bangura-Williams Millwall Aktiv 128 / 127 40% 1 01.08.2027 -
Aidomo Emakhu Oxford United Aktiv 118 / 128 40% 1 31.07.2027 -
Jacques Ekomié Wrexham Aktiv 135 / 141 40% 1 31.07.2027 -
Ethan Williams Peterborough United Aktiv 111 / 123 40% 1 31.07.2027 -
Musa Barrow Al-Khaleej Aktiv 141 / 141 40% 2 29.07.2027 -
Salvador Blopá Sporting CP Aktiv 128 / 133 40% 1 29.07.2027 -
Joe Knight Stevenage Aktiv 97 / 114 40% 1 29.07.2027 -
T-Jay Parfitt Colchester United Aktiv 85 / 99 40% 1 29.07.2027 -
Lewis Bate Stockport County Aktiv 124 / 129 40% 3 28.07.2027 -
Othmane Maamma Watford Aktiv 132 / 125 40% 1 28.07.2027 -
Tammer Kumar West Bromwich Albion Aktiv 116 / 116 40% 1 28.07.2027 -
Santiago Pierotti Lecce Aktiv 134 / 129 40% 1 28.07.2027 -
Boulaye Dia Lazio Aktiv 152 / 149 40% 1 28.07.2027 -
Haji Wright Coventry City Aktiv 131 / 137 40% 1 24.07.2027 -
Tijjani Noslin Lazio Aktiv 131 / 136 40% 1 24.07.2027 -
Cian Ashford Cardiff City Aktiv 130 / 128 40% 1 24.07.2027 -
Alex Robertson Cardiff City Aktiv 122 / 123 40% 2 23.07.2027 -
Abu Kamara Portsmouth Aktiv 125 / 117 40% 1 23.07.2027 -
Terry Devlin Portsmouth Aktiv 120 / 124 40% 1 23.07.2027 -
Afriyie Sulemana Hasaacas Aktiv 90 / 106 40% 1 23.07.2027 -
Caleb Yirenkyi Coventry City Aktiv 134 / 149 40% 1 23.07.2027 -
Pejman Azmoun Gostaresh Foulad Aktiv 130 / 126 40% 7 20.07.2027 -
Lukas Nmecha Leeds United Aktiv 129 / 131 40% 1 20.07.2027 -
Youssef En-Nesyri Al-Ittihad Aktiv 140 / 147 40% 2 19.07.2027 -
Prosper Obah Shakhtar Aktiv 129 / 134 40% 6 17.07.2027 -
August Priske Birmingham Aktiv 132 / 139 40% 1 17.07.2027 -
Fashion Sakala Al-Fayha Aktiv 128 / 122 40% 3 16.07.2027 -
Jordan Larsson Al-Ettifaq Aktiv 132 / 130 40% 2 16.07.2027 -
Roger Brugué Levante Aktiv 127 / 127 40% 3 15.07.2027 -
Vitinha Genoa Aktiv 127 / 135 40% 1 15.07.2027 -
Kauã Elias Shakhtar Aktiv 138 / 142 40% 8 14.07.2027 -
Mirlind Daku Spartak Moscow Aktiv 136 / 128 40% 4 14.07.2027 -
Cesare Casadei Torino Aktiv 139 / 135 40% 1 14.07.2027 -
Alfie Devine Preston Aktiv 119 / 118 40% 1 14.07.2027 -
Simone Kosijer Triestina Aktiv 96 / 98 40% 1 13.07.2027 -
Jack Shorrock Port Vale Aktiv 92 / 104 40% 1 13.07.2027 -
Gady Beyuku Modena Aktiv 112 / 125 40% 1 13.07.2027 -
Toni Fruk HNK Rijeka Aktiv 134 / 140 40% 5 12.07.2027 -
Medon Berisha Lecce Aktiv 132 / 132 40% 1 12.07.2027 -
Jamie McDonnell Oxford United Aktiv 118 / 122 40% 1 12.07.2027 -
Alex Lowry Wycombe Wanderers Aktiv 128 / 118 40% 1 08.07.2027 -
Malik Mothersille Stockport County Aktiv 112 / 126 40% 1 08.07.2027 -
João Klauss LA Galaxy Aktiv 134 / 126 40% 2 06.07.2027 -
Nilson Angulo Sunderland Aktiv 125 / 132 40% 1 06.07.2027 -
Agustín Anello Spartak Moscow Aktiv 129 / 127 40% 1 05.07.2027 -
Ruan Alanyaspor Aktiv 127 / 124 40% 1 04.07.2027 -
Kwadwo Duah Ludogorets Aktiv 133 / 126 40% 3 02.07.2027 -
Kévin Denkey FC Cincinnati Aktiv 127 / 124 40% 2 02.07.2027 -
Nikola Štulić Lecce Aktiv 134 / 128 40% 2 01.07.2027 -
Neal Maupay Olympique de Marseille Aktiv 135 / 143 40% 1 01.07.2027 -
Moussa Dembélé Spartak Moscow Aktiv 132 / 127 40% 1 30.06.2027 -
Federico Bonazzoli Bologna Aktiv 131 / 135 40% 4 26.06.2027 -
Dion Beljo Dinamo Zagreb Aktiv 130 / 134 40% 8 24.06.2027 -
Randy Nteka Rayo Vallecano Aktiv 138 / 123 40% 3 24.06.2027 -
Romano Floriani Mussolini Avellino Aktiv 124 / 123 40% 2 24.06.2027 -
Chem Campbell Stevenage Aktiv 118 / 115 40% 2 24.06.2027 -
Marlon Gomes Shakhtar Aktiv 136 / 137 40% 1 23.06.2027 -
Ryan Trevitt AFC Wimbledon Aktiv 112 / 124 40% 1 23.06.2027 -
Mfundo Vilakazi Kaizer Chiefs Aktiv 118 / 122 40% 1 23.06.2027 -
Taisei Miyashiro Werder Bremen Aktiv 130 / 126 40% 5 19.06.2027 -
Adam Armstrong Wolverhampton Aktiv 120 / 131 40% 2 15.06.2027 -
Bruno Barticciotto Olympique Lyonnais Aktiv 134 / 124 40% 1 10.06.2027 -
Tommaso Milanese Ascoli Aktiv 117 / 114 40% 1 09.06.2027 -
Relebohile Mofokeng Orlando Pirates Aktiv 132 / 132 40% 2 08.06.2027 -
Erick Marcus Ludogorets Aktiv 120 / 127 40% 2 30.01.2027 -
Victor Parada Spartak Moscow Aktiv 119 / 125 40% 1 30.01.2027 -
Nestory Irankunda Watford Aktiv 126 / 131 40% 1 28.01.2027 -
Josh Doig Sassuolo Aktiv 129 / 134 40% 1 28.01.2027 -
Alex Luna Instituto Aktiv 131 / 132 40% 1 25.01.2027 -
Jayden Nelson Bolton Wanderers Aktiv 111 / 117 40% 1 24.01.2027 -
Nicolás Arévalo Metalist Aktiv 118 / 116 40% 1 23.01.2027 -
Lindon Emërllahu Polissia Aktiv 115 / 122 40% 1 23.01.2027 -
Hélio Varela Maccabi Tel Aviv Aktiv 115 / 127 40% 2 22.01.2027 -
Kellen Fisher Norwich City Aktiv 122 / 124 40% 1 17.01.2027 -
Tyler Goodrham Oxford United Aktiv 125 / 129 40% 2 15.01.2027 -
Talles Costa Honved Aktiv 114 / 117 40% 1 15.01.2027 -
Sam Greenwood Bristol City Aktiv 123 / 125 40% 1 11.01.2027 -
Mohau Nkota Al-Hilal Aktiv 118 / 129 40% 1 11.01.2027 -
Sebastian Nebyla Jablonec Aktiv 113 / 117 40% 1 10.01.2027 -
Andre Brooks Sheffield United Aktiv 130 / 121 40% 2 09.01.2027 -
Tyreece Campbell Charlton Athletic Aktiv 115 / 125 40% 1 09.01.2027 -
Bongani Kekana SuperSport United Aktiv 136 / 137 40% 1 04.01.2027 -
Zeidane Inoussa Swansea City Aktiv 113 / 125 40% 1 03.01.2027 -
Kristoffer Lund Birmingham Aktiv 134 / 128 40% 1 03.01.2027 -
Griffin Yow New England Revolution Aktiv 118 / 127 40% 1 29.08.2026 -
Rodrigo Huescas FC Copenhagen Aktiv 131 / 139 40% 1 29.08.2026 -
Olakunle Olusegun Rostov Aktiv 126 / 126 40% 1 26.08.2026 -
Martin Cedidla Jablonec Aktiv 122 / 134 40% 1 26.08.2026 -
Telasco Segovia Inter Miami CF Aktiv 132 / 129 40% 2 24.08.2026 -
Emil Ceïde Rosenborg Aktiv 130 / 120 40% 1 24.08.2026 -
Matheus Alves CSKA Moscow Aktiv 131 / 126 40% 2 22.08.2026 -
Sergey Pinyaev Lokomotiv Moscow Aktiv 124 / 129 40% 1 20.08.2026 -
André Luiz Sporting Kansas City Aktiv 118 / 131 40% 1 19.08.2026 -
Patrik Wålemark Lech Aktiv 116 / 121 40% 1 18.08.2026 -
Qëndrim Zyba Slovan Liberec Aktiv 110 / 117 69% 1 10.08.2026 Befürworten
José Gayà Valencia Aktiv 125 / 134 40% 1 02.08.2026 -
Álex Berenguer Athletic Bilbao Aktiv 141 / 156 40% 1 02.08.2026 -